createdAt,value
2018-12-06T00:00:08.006Z,100788.61
2018-12-06T00:02:35.799Z,100785.59
2018-12-06T00:05:03.227Z,100776.64
2018-12-06T00:07:30.676Z,100768.47
2018-12-06T00:09:58.127Z,100769.95
2018-12-06T00:12:25.575Z,100764.84
2018-12-06T00:14:53.096Z,100773.89
2018-12-06T00:17:20.486Z,100769.48
2018-12-06T00:19:47.918Z,100756.50
2018-12-06T00:22:15.388Z,100768.13
2018-12-06T00:24:42.825Z,100765.06
2018-12-06T00:27:10.608Z,100764.67
2018-12-06T00:29:38.019Z,100749.23
2018-12-06T00:32:05.531Z,100756.62
2018-12-06T00:34:33.220Z,100761.14
2018-12-06T00:37:00.749Z,100753.75
2018-12-06T00:39:28.203Z,100758.01
2018-12-06T00:41:55.662Z,100766.65
2018-12-06T00:44:23.088Z,100768.51
2018-12-06T00:46:50.581Z,100766.65
2018-12-06T00:49:18.012Z,100767.12
2018-12-06T00:51:45.488Z,100764.98
2018-12-06T00:54:12.925Z,100763.31
2018-12-06T00:56:40.361Z,100770.28
2018-12-06T00:59:07.799Z,100762.03
2018-12-06T01:01:35.223Z,100768.53
2018-12-06T01:04:02.727Z,100761.75
2018-12-06T01:06:30.231Z,100776.29
2018-12-06T01:08:58.119Z,100771.76
2018-12-06T01:11:25.548Z,100763.70
2018-12-06T01:13:52.967Z,100770.02
2018-12-06T01:16:20.431Z,100772.18
2018-12-06T01:18:47.932Z,100777.30
2018-12-06T01:21:15.369Z,100773.34
2018-12-06T01:23:42.843Z,100769.52
2018-12-06T01:26:10.271Z,100774.31
2018-12-06T01:28:38.153Z,100785.66
2018-12-06T01:31:05.626Z,100788.96
2018-12-06T01:33:33.092Z,100792.80
2018-12-06T01:36:00.660Z,100792.44
2018-12-06T01:38:28.316Z,100792.52
2018-12-06T01:40:55.803Z,100787.60
2018-12-06T01:43:23.283Z,100796.27
2018-12-06T01:45:50.767Z,100791.55
2018-12-06T01:48:18.543Z,100785.46
2018-12-06T01:50:46.023Z,100789.30
2018-12-06T01:53:13.460Z,100787.43
2018-12-06T01:55:40.879Z,100788.91
2018-12-06T01:58:08.308Z,100788.48
2018-12-06T02:00:35.740Z,100770.50
2018-12-06T02:03:03.183Z,100769.73
2018-12-06T02:05:30.644Z,100763.34
2018-12-06T02:07:58.075Z,100766.37
2018-12-06T02:10:25.514Z,100762.14
2018-12-06T02:12:52.952Z,100756.33
2018-12-06T02:15:20.376Z,100759.50
2018-12-06T02:17:47.835Z,100757.80
2018-12-06T02:20:15.300Z,100756.25
2018-12-06T02:22:42.855Z,100759.39
2018-12-06T02:25:10.279Z,100753.97
2018-12-06T02:27:37.708Z,100753.58
2018-12-06T02:30:05.141Z,100748.46
2018-12-06T02:32:32.575Z,100744.16
2018-12-06T02:35:00.078Z,100744.42
2018-12-06T02:37:27.594Z,100741.59
2018-12-06T02:39:55.024Z,100733.61
2018-12-06T02:42:22.521Z,100726.25
2018-12-06T02:44:49.950Z,100738.03
2018-12-06T02:47:17.428Z,100738.53
2018-12-06T02:49:44.919Z,100733.22
2018-12-06T02:52:12.505Z,100728.13
2018-12-06T02:54:40.638Z,100737.95
2018-12-06T02:57:08.081Z,100711.58
2018-12-06T02:59:35.527Z,100712.97
2018-12-06T03:02:03.029Z,100711.70
2018-12-06T03:04:30.497Z,100695.77
2018-12-06T03:06:58.015Z,100698.12
2018-12-06T03:09:25.435Z,100698.80
2018-12-06T03:11:52.927Z,100690.45
2018-12-06T03:14:20.386Z,100681.27
2018-12-06T03:16:47.844Z,100660.42
2018-12-06T03:19:15.317Z,100648.70
2018-12-06T03:21:42.761Z,100644.63
2018-12-06T03:24:10.211Z,100650.81
2018-12-06T03:26:37.633Z,100650.23
2018-12-06T03:29:05.065Z,100654.05
2018-12-06T03:31:32.593Z,100646.78
2018-12-06T03:34:00.027Z,100649.34
2018-12-06T03:36:27.453Z,100647.09
2018-12-06T03:38:54.873Z,100653.06
2018-12-06T03:41:22.289Z,100646.87
2018-12-06T03:43:49.711Z,100638.52
2018-12-06T03:46:17.227Z,100642.64
2018-12-06T03:48:44.701Z,100637.43
2018-12-06T03:51:12.944Z,100640.40
2018-12-06T03:53:40.527Z,100628.08
2018-12-06T03:56:07.944Z,100634.67
2018-12-06T03:58:35.447Z,100623.19
2018-12-06T04:01:02.883Z,100622.19
2018-12-06T04:03:30.318Z,100617.77
2018-12-06T04:05:57.815Z,100611.58
2018-12-06T04:08:25.277Z,100597.98
2018-12-06T04:10:52.719Z,100592.02
2018-12-06T04:13:20.187Z,100583.67
2018-12-06T04:15:47.645Z,100585.94
2018-12-06T04:18:15.101Z,100581.31
2018-12-06T04:20:42.569Z,100592.41
2018-12-06T04:23:10.007Z,100579.94
2018-12-06T04:25:37.452Z,100575.71
2018-12-06T04:28:04.867Z,100574.81
2018-12-06T04:30:32.292Z,100569.50
2018-12-06T04:32:59.737Z,100561.56
2018-12-06T04:35:27.212Z,100556.82
2018-12-06T04:37:54.709Z,100551.52
2018-12-06T04:40:22.152Z,100555.84
2018-12-06T04:42:49.585Z,100558.02
2018-12-06T04:45:17.016Z,100543.36
2018-12-06T04:47:44.594Z,100538.76
2018-12-06T04:50:12.045Z,100538.09
2018-12-06T04:52:39.475Z,100538.87
2018-12-06T04:55:06.907Z,100536.91
2018-12-06T04:57:34.423Z,100541.91
2018-12-06T05:00:01.850Z,100537.89
2018-12-06T05:02:29.440Z,100536.44
2018-12-06T05:04:56.947Z,100543.97
2018-12-06T05:07:24.371Z,100540.03
2018-12-06T05:09:51.815Z,100523.74
2018-12-06T05:12:19.272Z,100526.00
2018-12-06T05:14:46.832Z,100523.83
2018-12-06T05:17:14.338Z,100524.72
2018-12-06T05:19:41.771Z,100518.55
2018-12-06T05:22:09.207Z,100511.05
2018-12-06T05:24:36.668Z,100507.80
2018-12-06T05:27:04.358Z,100505.06
2018-12-06T05:29:31.782Z,100507.73
2018-12-06T05:31:59.467Z,100508.77
2018-12-06T05:34:26.900Z,100496.91
2018-12-06T05:36:54.377Z,100482.53
2018-12-06T05:39:21.916Z,100485.48
2018-12-06T05:41:49.376Z,100490.20
2018-12-06T05:44:16.831Z,100479.09
2018-12-06T05:46:44.259Z,100493.30
2018-12-06T05:49:11.847Z,100485.66
2018-12-06T05:51:39.287Z,100497.84
2018-12-06T05:54:06.796Z,100498.34
2018-12-06T05:56:34.214Z,100495.47
2018-12-06T05:59:01.756Z,100500.86
2018-12-06T06:01:29.232Z,100500.37
2018-12-06T06:03:56.706Z,100508.25
2018-12-06T06:06:24.128Z,100505.94
2018-12-06T06:08:51.552Z,100506.61
2018-12-06T06:11:19.215Z,100503.28
2018-12-06T06:13:46.627Z,100501.25
2018-12-06T06:16:14.055Z,100508.81
2018-12-06T06:18:41.559Z,100503.98
2018-12-06T06:21:08.978Z,100504.80
2018-12-06T06:23:36.459Z,100505.94
2018-12-06T06:26:04.061Z,100497.81
2018-12-06T06:28:31.584Z,100504.48
2018-12-06T06:30:59.016Z,100496.84
2018-12-06T06:33:26.458Z,100496.81
2018-12-06T06:35:53.915Z,100496.60
2018-12-06T06:38:21.341Z,100482.68
2018-12-06T06:40:48.776Z,100483.07
2018-12-06T06:43:16.212Z,100486.59
2018-12-06T06:45:43.640Z,100488.19
2018-12-06T06:48:11.065Z,100486.80
2018-12-06T06:50:38.479Z,100494.58
2018-12-06T06:53:05.912Z,100491.42
2018-12-06T06:55:33.355Z,100496.99
2018-12-06T06:58:00.802Z,100491.52
2018-12-06T07:00:28.332Z,100491.63
2018-12-06T07:02:55.765Z,100496.31
2018-12-06T07:05:23.202Z,100498.94
2018-12-06T07:07:50.619Z,100492.70
2018-12-06T07:10:18.156Z,100496.53
2018-12-06T07:12:45.657Z,100500.97
2018-12-06T07:15:13.173Z,100494.36
2018-12-06T07:17:41.155Z,100502.92
2018-12-06T07:20:08.593Z,100495.08
2018-12-06T07:22:36.024Z,100500.08
2018-12-06T07:25:03.525Z,100502.35
2018-12-06T07:27:30.959Z,100503.52
2018-12-06T07:29:58.396Z,100515.03
2018-12-06T07:32:25.824Z,100515.10
2018-12-06T07:34:53.348Z,100525.13
2018-12-06T07:37:20.809Z,100529.38
2018-12-06T07:39:48.245Z,100526.29
2018-12-06T07:42:15.665Z,100521.60
2018-12-06T07:44:43.192Z,100521.11
2018-12-06T07:47:10.668Z,100518.80
2018-12-06T07:49:38.095Z,100513.72
2018-12-06T07:52:05.550Z,100513.01
2018-12-06T07:54:33.014Z,100516.66
2018-12-06T07:57:00.442Z,100530.52
2018-12-06T07:59:27.915Z,100531.69
2018-12-06T08:01:55.347Z,100546.14
2018-12-06T08:04:22.797Z,100544.19
2018-12-06T08:06:50.235Z,100546.04
2018-12-06T08:09:17.676Z,100560.18
2018-12-06T08:11:45.100Z,100563.52
2018-12-06T08:14:12.568Z,100553.39
2018-12-06T08:16:39.993Z,100552.30
2018-12-06T08:19:07.591Z,100558.30
2018-12-06T08:21:35.046Z,100557.41
2018-12-06T08:24:02.488Z,100554.84
2018-12-06T08:26:29.920Z,100557.52
2018-12-06T08:28:57.457Z,100562.09
2018-12-06T08:31:24.976Z,100555.91
2018-12-06T08:33:52.476Z,100540.56
2018-12-06T08:36:19.896Z,100538.89
2018-12-06T08:38:47.328Z,100533.88
2018-12-06T08:41:14.813Z,100533.49
2018-12-06T08:43:42.580Z,100532.28
2018-12-06T08:46:10.020Z,100528.55
2018-12-06T08:48:37.497Z,100544.40
2018-12-06T08:51:04.930Z,100551.47
2018-12-06T08:53:32.366Z,100552.64
2018-12-06T08:55:59.805Z,100544.40
2018-12-06T08:58:27.235Z,100542.73
2018-12-06T09:00:54.667Z,100542.13
2018-12-06T09:03:22.130Z,100538.22
2018-12-06T09:05:49.583Z,100546.35
2018-12-06T09:08:17.068Z,100549.59
2018-12-06T09:11:15.538Z,100561.55
2018-12-06T09:13:43.085Z,100558.77
2018-12-06T09:16:10.569Z,100552.48
2018-12-06T09:18:37.987Z,100559.16
2018-12-06T09:21:05.417Z,100558.55
2018-12-06T09:23:32.829Z,100572.41
2018-12-06T09:26:00.272Z,100563.38
2018-12-06T09:28:27.959Z,100560.89
2018-12-06T09:31:01.050Z,100549.16
2018-12-06T09:33:24.781Z,100540.86
2018-12-06T09:35:52.203Z,100541.30
2018-12-06T09:38:19.619Z,100544.19
2018-12-06T09:40:47.032Z,100554.66
2018-12-06T09:43:14.455Z,100545.03
2018-12-06T09:45:41.875Z,100542.14
2018-12-06T09:48:09.297Z,100542.35
2018-12-06T09:50:36.725Z,100542.86
2018-12-06T09:53:04.134Z,100546.70
2018-12-06T09:55:31.559Z,100547.77
2018-12-06T09:57:58.987Z,100535.45
2018-12-06T10:00:26.410Z,100549.92
2018-12-06T10:02:53.900Z,100549.98
2018-12-06T10:05:21.326Z,100545.59
2018-12-06T10:07:48.748Z,100543.81
2018-12-06T10:10:16.192Z,100543.42
2018-12-06T10:12:43.626Z,100535.95
2018-12-06T10:15:11.179Z,100539.30
2018-12-06T10:17:38.613Z,100529.94
2018-12-06T10:20:06.108Z,100531.34
2018-12-06T10:22:33.523Z,100530.72
2018-12-06T10:25:00.964Z,100538.16
2018-12-06T10:27:28.388Z,100537.09
2018-12-06T10:29:55.822Z,100531.30
2018-12-06T10:32:23.316Z,100524.55
2018-12-06T10:34:53.575Z,100506.58
2018-12-06T10:37:20.147Z,100502.25
2018-12-06T10:39:47.560Z,100493.86
2018-12-06T10:42:14.990Z,100501.55
2018-12-06T10:44:42.415Z,100510.48
2018-12-06T10:47:09.855Z,100511.23
2018-12-06T10:49:37.296Z,100505.78
2018-12-06T10:52:04.713Z,100510.38
2018-12-06T10:54:32.130Z,100509.37
2018-12-06T10:56:59.547Z,100503.59
2018-12-06T10:59:26.977Z,100497.31
2018-12-06T11:01:59.760Z,100502.84
2018-12-06T11:04:32.517Z,100502.97
2018-12-06T11:06:59.936Z,100506.19
2018-12-06T11:09:27.346Z,100498.47
2018-12-06T11:11:54.774Z,100502.80
2018-12-06T11:14:22.280Z,100498.96
2018-12-06T11:16:49.688Z,100497.27
2018-12-06T11:19:17.239Z,100485.52
2018-12-06T11:21:44.684Z,100485.88
2018-12-06T11:24:12.097Z,100490.87
2018-12-06T11:26:39.524Z,100495.42
2018-12-06T11:29:06.953Z,100493.92
2018-12-06T11:31:34.375Z,100494.26
2018-12-06T11:34:01.791Z,100493.18
2018-12-06T11:36:29.227Z,100494.26
2018-12-06T11:38:56.652Z,100492.56
2018-12-06T11:41:24.076Z,100489.38
2018-12-06T11:43:51.500Z,100486.81
2018-12-06T11:46:18.924Z,100477.91
2018-12-06T11:48:46.348Z,100481.49
2018-12-06T11:51:13.775Z,100471.88
2018-12-06T11:53:41.208Z,100474.53
2018-12-06T11:56:08.668Z,100462.58
2018-12-06T11:58:36.092Z,100464.06
2018-12-06T12:01:03.594Z,100455.75
2018-12-06T12:03:31.011Z,100447.37
2018-12-06T12:05:58.870Z,100456.02
2018-12-06T12:08:26.412Z,100463.95
2018-12-06T12:10:53.844Z,100462.02
2018-12-06T12:13:21.272Z,100468.33
2018-12-06T12:15:48.699Z,100463.30
2018-12-06T12:18:16.129Z,100454.70
2018-12-06T12:20:43.573Z,100453.81
2018-12-06T12:23:10.997Z,100445.02
2018-12-06T12:25:38.414Z,100444.48
2018-12-06T12:28:05.837Z,100442.16
2018-12-06T12:30:33.268Z,100449.22
2018-12-06T12:33:00.776Z,100448.09
2018-12-06T12:35:28.235Z,100447.31
2018-12-06T12:37:55.676Z,100445.30
2018-12-06T12:40:23.095Z,100441.44
2018-12-06T12:42:50.531Z,100446.02
2018-12-06T12:45:17.963Z,100450.00
2018-12-06T12:47:45.382Z,100443.95
2018-12-06T12:50:13.075Z,100435.45
2018-12-06T12:52:40.541Z,100431.17
2018-12-06T12:55:07.973Z,100425.66
2018-12-06T12:57:35.452Z,100427.33
2018-12-06T13:00:02.885Z,100427.00
2018-12-06T13:02:30.313Z,100426.05
2018-12-06T13:04:57.904Z,100424.58
2018-12-06T13:07:25.339Z,100423.31
2018-12-06T13:09:52.840Z,100417.08
2018-12-06T13:12:20.296Z,100416.89
2018-12-06T13:14:48.492Z,100410.50
2018-12-06T13:17:15.928Z,100411.14
2018-12-06T13:19:43.347Z,100415.31
2018-12-06T13:22:10.768Z,100416.43
2018-12-06T13:24:38.200Z,100416.09
2018-12-06T13:27:05.676Z,100409.26
2018-12-06T13:29:33.121Z,100402.04
2018-12-06T13:32:00.582Z,100408.84
2018-12-06T13:34:28.004Z,100413.86
2018-12-06T13:36:55.477Z,100411.66
2018-12-06T13:39:23.280Z,100414.68
2018-12-06T13:41:50.811Z,100415.66
2018-12-06T13:44:18.504Z,100420.69
2018-12-06T13:46:45.992Z,100424.35
2018-12-06T13:49:13.496Z,100425.38
2018-12-06T13:51:40.928Z,100430.10
2018-12-06T13:54:08.352Z,100431.38
2018-12-06T13:56:35.794Z,100433.31
2018-12-06T13:59:03.275Z,100442.58
2018-12-06T14:01:30.704Z,100444.19
2018-12-06T14:03:58.244Z,100450.79
2018-12-06T14:06:25.684Z,100452.89
2018-12-06T14:08:53.170Z,100452.43
2018-12-06T14:11:20.680Z,100448.42
2018-12-06T14:13:48.114Z,100453.22
2018-12-06T14:16:16.382Z,100444.72
2018-12-06T14:18:43.814Z,100452.23
2018-12-06T14:21:11.252Z,100456.73
2018-12-06T14:23:38.778Z,100455.61
2018-12-06T14:26:06.200Z,100453.22
2018-12-06T14:28:33.625Z,100450.32
2018-12-06T14:31:01.113Z,100455.39
2018-12-06T14:33:28.649Z,100463.03
2018-12-06T14:35:56.075Z,100470.11
2018-12-06T14:38:23.572Z,100477.42
2018-12-06T14:40:51.033Z,100477.27
2018-12-06T14:43:18.812Z,100483.11
2018-12-06T14:45:46.663Z,100488.80
2018-12-06T14:48:14.468Z,100486.73
2018-12-06T14:50:41.948Z,100474.72
2018-12-06T14:53:09.395Z,100472.98
2018-12-06T14:55:37.478Z,100470.83
2018-12-06T14:58:04.965Z,100469.66
2018-12-06T15:00:32.401Z,100461.03
2018-12-06T15:02:59.844Z,100454.31
2018-12-06T15:05:27.284Z,100456.81
2018-12-06T15:07:54.707Z,100455.20
2018-12-06T15:10:22.252Z,100449.81
2018-12-06T15:12:49.674Z,100451.45
2018-12-06T15:15:17.187Z,100458.36
2018-12-06T15:17:44.627Z,100460.73
2018-12-06T15:20:12.063Z,100451.39
2018-12-06T15:22:39.551Z,100456.08
2018-12-06T15:25:07.023Z,100450.12
2018-12-06T15:27:34.704Z,100457.75
2018-12-06T15:30:02.237Z,100467.91
2018-12-06T15:32:29.664Z,100468.87
2018-12-06T15:34:57.114Z,100478.74
2018-12-06T15:37:24.595Z,100479.13
2018-12-06T15:39:52.024Z,100478.35
2018-12-06T15:42:19.466Z,100474.05
2018-12-06T15:44:46.948Z,100478.45
2018-12-06T15:47:14.377Z,100477.22
2018-12-06T15:49:41.897Z,100478.95
2018-12-06T15:52:09.709Z,100480.91
2018-12-06T15:54:37.209Z,100480.52
2018-12-06T15:57:04.663Z,100486.16
2018-12-06T15:59:32.124Z,100492.38
2018-12-06T16:01:59.561Z,100493.33
2018-12-06T16:04:27.039Z,100478.48
2018-12-06T16:06:54.468Z,100478.20
2018-12-06T16:09:21.951Z,100486.16
2018-12-06T16:11:49.388Z,100491.59
2018-12-06T16:14:16.837Z,100484.31
2018-12-06T16:16:44.332Z,100482.64
2018-12-06T16:19:11.779Z,100480.44
2018-12-06T16:21:39.208Z,100479.09
2018-12-06T16:24:06.711Z,100463.96
2018-12-06T16:26:34.167Z,100470.31
2018-12-06T16:29:01.616Z,100462.31
2018-12-06T16:31:29.054Z,100464.56
2018-12-06T16:33:56.486Z,100467.14
2018-12-06T16:36:23.900Z,100464.11
2018-12-06T16:38:51.367Z,100476.55
2018-12-06T16:41:20.552Z,100478.50
2018-12-06T16:43:48.163Z,100482.40
2018-12-06T16:46:15.601Z,100485.17
2018-12-06T16:48:43.295Z,100488.23
2018-12-06T16:51:10.707Z,100479.71
2018-12-06T16:53:38.143Z,100480.16
2018-12-06T16:56:05.571Z,100476.99
2018-12-06T16:58:33.013Z,100477.66
2018-12-06T17:01:05.486Z,100469.93
2018-12-06T17:03:33.044Z,100469.93
2018-12-06T17:06:00.490Z,100479.45
2018-12-06T17:08:27.920Z,100476.83
2018-12-06T17:10:55.359Z,100473.55
2018-12-06T17:13:22.797Z,100481.01
2018-12-06T17:15:50.230Z,100480.00
2018-12-06T17:18:17.679Z,100489.78
2018-12-06T17:20:45.118Z,100475.33
2018-12-06T17:23:12.532Z,100475.81
2018-12-06T17:25:39.970Z,100470.92
2018-12-06T17:28:07.421Z,100472.79
2018-12-06T17:30:34.852Z,100479.59
2018-12-06T17:33:02.274Z,100472.19
2018-12-06T17:35:29.711Z,100472.69
2018-12-06T17:37:57.139Z,100470.13
2018-12-06T17:40:24.567Z,100457.67
2018-12-06T17:42:52.032Z,100462.02
2018-12-06T17:45:19.472Z,100470.84
2018-12-06T17:47:46.908Z,100478.70
2018-12-06T17:50:14.344Z,100469.59
2018-12-06T17:52:41.775Z,100465.64
2018-12-06T17:55:09.267Z,100466.18
2018-12-06T17:57:36.686Z,100467.95
2018-12-06T18:00:04.255Z,100460.27
2018-12-06T18:02:31.755Z,100454.01
2018-12-06T18:04:59.197Z,100445.77
2018-12-06T18:07:26.615Z,100443.50
2018-12-06T18:09:54.048Z,100437.58
2018-12-06T18:12:21.482Z,100437.92
2018-12-06T18:14:48.953Z,100431.11
2018-12-06T18:17:17.187Z,100433.09
2018-12-06T18:19:44.681Z,100452.56
2018-12-06T18:22:12.541Z,100435.50
2018-12-06T18:24:39.990Z,100441.52
2018-12-06T18:27:07.431Z,100430.92
2018-12-06T18:29:34.905Z,100437.03
2018-12-06T18:32:02.376Z,100438.47
2018-12-06T18:34:29.831Z,100434.53
2018-12-06T18:36:57.262Z,100430.86
2018-12-06T18:39:24.767Z,100443.45
2018-12-06T18:41:52.193Z,100451.61
2018-12-06T18:44:19.617Z,100452.73
2018-12-06T18:46:47.052Z,100449.86
2018-12-06T18:49:14.475Z,100445.37
2018-12-06T18:51:41.960Z,100448.63
2018-12-06T18:54:09.435Z,100449.61
2018-12-06T18:56:36.867Z,100446.94
2018-12-06T18:59:04.347Z,100447.28
2018-12-06T19:01:31.771Z,100452.72
2018-12-06T19:03:59.208Z,100448.09
2018-12-06T19:06:26.640Z,100452.27
2018-12-06T19:08:54.176Z,100451.14
2018-12-06T19:11:21.596Z,100441.83
2018-12-06T19:13:49.036Z,100448.23
2018-12-06T19:16:16.472Z,100442.02
2018-12-06T19:18:43.904Z,100435.75
2018-12-06T19:21:11.328Z,100432.21
2018-12-06T19:23:38.771Z,100421.00
2018-12-06T19:26:06.205Z,100426.13
2018-12-06T19:28:33.635Z,100439.65
2018-12-06T19:31:01.161Z,100427.81
2018-12-06T19:33:28.582Z,100427.41
2018-12-06T19:35:56.030Z,100425.80
2018-12-06T19:38:24.389Z,100425.48
2018-12-06T19:40:51.828Z,100412.03
2018-12-06T19:43:20.820Z,100419.57
2018-12-06T19:45:48.372Z,100417.30
2018-12-06T19:48:15.808Z,100420.85
2018-12-06T19:50:43.239Z,100418.05
2018-12-06T19:53:11.370Z,100409.71
2018-12-06T19:55:38.807Z,100407.45
2018-12-06T19:58:06.236Z,100398.62
2018-12-06T20:00:33.743Z,100405.52
2018-12-06T20:03:01.175Z,100403.20
2018-12-06T20:05:28.608Z,100407.05
2018-12-06T20:07:56.033Z,100406.56
2018-12-06T20:10:23.463Z,100411.05
2018-12-06T20:12:50.892Z,100406.95
2018-12-06T20:15:18.323Z,100409.62
2018-12-06T20:17:45.757Z,100407.54
2018-12-06T20:20:13.203Z,100414.59
2018-12-06T20:22:43.012Z,100415.23
2018-12-06T20:25:10.435Z,100418.43
2018-12-06T20:27:37.870Z,100413.31
2018-12-06T20:30:05.295Z,100418.73
2018-12-06T20:32:32.766Z,100408.48
2018-12-06T20:35:00.200Z,100401.61
2018-12-06T20:37:27.628Z,100400.14
2018-12-06T20:39:55.072Z,100407.34
2018-12-06T20:42:22.501Z,100396.30
2018-12-06T20:44:49.919Z,100401.61
2018-12-06T20:47:19.013Z,100404.18
2018-12-06T20:49:46.468Z,100399.05
2018-12-06T20:52:13.917Z,100396.80
2018-12-06T20:54:41.407Z,100394.56
2018-12-06T20:57:08.835Z,100376.77
2018-12-06T20:59:36.276Z,100375.89
2018-12-06T21:02:03.697Z,100372.78
2018-12-06T21:04:31.134Z,100371.95
2018-12-06T21:06:58.554Z,100386.67
2018-12-06T21:09:25.991Z,100384.45
2018-12-06T21:11:53.423Z,100380.28
2018-12-06T21:14:22.260Z,100375.64
2018-12-06T21:16:49.867Z,100361.05
2018-12-06T21:19:17.360Z,100357.55
2018-12-06T21:21:44.794Z,100348.33
2018-12-06T21:24:12.250Z,100358.64
2018-12-06T21:26:39.711Z,100353.20
2018-12-06T21:29:07.148Z,100355.13
2018-12-06T21:31:34.579Z,100356.17
2018-12-06T21:34:02.009Z,100358.19
2018-12-06T21:36:29.427Z,100360.56
2018-12-06T21:38:56.851Z,100352.02
2018-12-06T21:41:24.293Z,100348.73
2018-12-06T21:43:51.738Z,100353.76
2018-12-06T21:46:19.154Z,100347.69
2018-12-06T21:48:46.594Z,100351.44
2018-12-06T21:51:14.024Z,100342.95
2018-12-06T21:53:41.465Z,100336.31
2018-12-06T21:56:08.895Z,100348.81
2018-12-06T21:58:36.329Z,100349.46
2018-12-06T22:01:03.793Z,100354.00
2018-12-06T22:03:31.190Z,100349.12
2018-12-06T22:05:58.707Z,100358.97
2018-12-06T22:08:26.156Z,100354.73
2018-12-06T22:10:53.623Z,100356.08
2018-12-06T22:13:21.055Z,100352.97
2018-12-06T22:15:48.483Z,100346.02
2018-12-06T22:18:15.912Z,100342.47
2018-12-06T22:20:43.356Z,100349.77
2018-12-06T22:23:10.797Z,100350.16
2018-12-06T22:25:38.366Z,100352.57
2018-12-06T22:28:05.792Z,100346.66
2018-12-06T22:30:33.232Z,100346.07
2018-12-06T22:33:00.664Z,100345.03
2018-12-06T22:35:28.087Z,100341.53
2018-12-06T22:37:55.522Z,100349.06
2018-12-06T22:40:22.949Z,100348.00
2018-12-06T22:42:50.375Z,100346.16
2018-12-06T22:45:17.792Z,100348.73
2018-12-06T22:47:45.240Z,100340.25
2018-12-06T22:50:12.665Z,100341.53
2018-12-06T22:52:40.091Z,100344.64
2018-12-06T22:55:07.524Z,100333.89
2018-12-06T22:57:34.956Z,100324.71
2018-12-06T23:00:02.480Z,100317.33
2018-12-06T23:02:29.945Z,100327.73
2018-12-06T23:04:57.373Z,100324.08
2018-12-06T23:07:24.806Z,100327.19
2018-12-06T23:09:52.238Z,100316.30
2018-12-06T23:12:19.668Z,100317.88
2018-12-06T23:14:47.092Z,100315.95
2018-12-06T23:17:14.515Z,100311.16
2018-12-06T23:19:41.948Z,100305.24
2018-12-06T23:22:09.380Z,100297.55
2018-12-06T23:24:36.803Z,100293.31
2018-12-06T23:27:04.238Z,100292.58
2018-12-06T23:29:31.684Z,100283.52
2018-12-06T23:31:59.123Z,100284.73
2018-12-06T23:34:26.543Z,100276.05
2018-12-06T23:36:53.976Z,100279.22
2018-12-06T23:39:21.400Z,100273.60
2018-12-06T23:41:48.852Z,100279.37
2018-12-06T23:44:16.279Z,100279.37
2018-12-06T23:46:43.710Z,100275.26
2018-12-06T23:49:11.145Z,100270.63
2018-12-06T23:51:38.577Z,100271.81
2018-12-06T23:54:05.992Z,100274.22
2018-12-06T23:56:33.419Z,100264.12
2018-12-06T23:59:00.842Z,100261.01
